Time;durP1;ratioP1;P1;durP2;ratioP2;P2;SDS_P1;SDS_P2;PMS_P1;PMS_P2;Temp;Humidity;BMP_temperature;BMP_pressure;BME280_temperature;BME280_humidity;BME280_pressure;Samples;Min_cycle;Max_cycle;Signal;HPM_P1;HPM_P2
2020/12/07 00:00:36;;;;;;;46.78;19.38;;;;;;;-0.07;93.29;100158.31;5075448;28;20036;-88
2020/12/07 00:03:02;;;;;;;48.15;20.00;;;;;;;-0.08;93.31;100154.91;5075316;28;20122;-90
2020/12/07 00:05:28;;;;;;;42.75;18.30;;;;;;;-0.09;93.28;100142.94;5075222;28;20157;-90
2020/12/07 00:07:54;;;;;;;43.45;18.33;;;;;;;-0.10;93.46;100143.03;5074619;28;20024;-89
2020/12/07 00:10:19;;;;;;;44.15;19.08;;;;;;;-0.15;93.12;100140.72;5074958;28;20775;-88
2020/12/07 00:12:45;;;;;;;44.13;18.83;;;;;;;-0.15;93.09;100145.88;5075198;28;20119;-90
2020/12/07 00:15:12;;;;;;;40.72;17.75;;;;;;;-0.16;93.28;100140.75;5074576;28;20456;-90
2020/12/07 00:17:37;;;;;;;47.90;19.52;;;;;;;-0.16;93.00;100133.03;5076334;28;20040;-91
2020/12/07 00:20:05;;;;;;;44.95;19.17;;;;;;;-0.19;93.39;100136.63;5074729;28;20382;-90
2020/12/07 00:22:31;;;;;;;48.38;18.70;;;;;;;-0.19;93.22;100128.06;5074612;28;20022;-91
2020/12/07 00:24:58;;;;;;;50.50;20.13;;;;;;;-0.19;93.11;100128.06;5075717;28;20036;-90
2020/12/07 00:27:32;;;;;;;47.35;19.90;;;;;;;-0.18;93.42;100125.38;5076441;28;20028;-91
2020/12/07 00:29:59;;;;;;;49.75;21.05;;;;;;;-0.16;93.15;100126.16;5079458;28;20035;-89
2020/12/07 00:32:25;;;;;;;53.53;20.52;;;;;;;-0.16;93.21;100123.59;5077733;28;20322;-90
2020/12/07 00:34:52;;;;;;;46.20;18.65;;;;;;;-0.14;93.24;100126.06;5078391;28;20062;-90
2020/12/07 00:37:19;;;;;;;65.25;23.15;;;;;;;-0.20;93.29;100127.22;5078936;28;20114;-90
2020/12/07 00:39:44;;;;;;;52.35;20.27;;;;;;;-0.23;93.19;100132.56;5078937;28;20035;-90
2020/12/07 00:42:10;;;;;;;52.35;19.23;;;;;;;-0.21;93.18;100125.56;5077516;28;20028;-90
2020/12/07 00:44:41;;;;;;;44.75;19.33;;;;;;;-0.20;93.25;100119.50;5077923;28;20058;-90
2020/12/07 00:47:07;;;;;;;44.05;18.67;;;;;;;-0.19;93.19;100125.47;5079681;28;20504;-90
2020/12/07 00:49:34;;;;;;;42.70;18.08;;;;;;;-0.21;93.34;100124.75;5077999;28;20032;-90
2020/12/07 00:52:00;;;;;;;48.20;19.27;;;;;;;-0.22;93.01;100125.66;5077080;28;20060;-89
2020/12/07 00:54:26;;;;;;;47.45;17.90;;;;;;;-0.25;93.08;100113.78;5076924;28;20063;-89
2020/12/07 00:56:59;;;;;;;44.78;18.15;;;;;;;-0.27;93.35;100113.03;5077025;28;20020;-89
2020/12/07 00:59:26;;;;;;;44.22;17.52;;;;;;;-0.28;93.27;100111.38;5076761;28;20085;-89
2020/12/07 01:01:53;;;;;;;50.58;19.25;;;;;;;-0.32;93.24;100109.88;5078076;28;20024;-90
2020/12/07 01:04:19;;;;;;;49.50;18.95;;;;;;;-0.38;93.16;100110.22;5078340;28;20016;-89
2020/12/07 01:06:45;;;;;;;43.35;17.08;;;;;;;-0.40;93.08;100112.06;5077784;28;20355;-89
2020/12/07 01:09:21;;;;;;;43.60;17.88;;;;;;;-0.40;93.32;100110.31;5077562;28;20177;-89
2020/12/07 01:11:54;;;;;;;47.28;16.98;;;;;;;-0.43;93.33;100102.75;5077618;28;20081;-89
2020/12/07 01:14:21;;;;;;;49.05;18.23;;;;;;;-0.43;93.36;100101.94;5077281;28;20048;-90
2020/12/07 01:16:46;;;;;;;45.78;17.42;;;;;;;-0.43;93.28;100099.34;5077311;28;20207;-90
2020/12/07 01:19:12;;;;;;;46.63;18.73;;;;;;;-0.46;93.19;100095.19;5076677;28;20079;-90
2020/12/07 01:21:37;;;;;;;40.50;16.45;;;;;;;-0.49;93.34;100095.34;5076588;28;20533;-89
2020/12/07 01:24:03;;;;;;;42.17;18.05;;;;;;;-0.49;93.35;100094.53;5078410;28;20035;-89
2020/12/07 01:26:30;;;;;;;45.10;17.40;;;;;;;-0.52;93.40;100097.28;5079371;28;20028;-89
2020/12/07 01:28:57;;;;;;;42.03;16.25;;;;;;;-0.54;93.33;100092.22;5078460;28;20459;-89
2020/12/07 01:31:22;;;;;;;45.50;18.17;;;;;;;-0.54;93.40;100093.94;5077425;28;20101;-89
2020/12/07 01:33:48;;;;;;;41.50;16.33;;;;;;;-0.52;93.65;100094.69;5076837;28;20486;-90
2020/12/07 01:36:13;;;;;;;38.75;16.20;;;;;;;-0.51;93.33;100096.34;5076612;28;20059;-90
2020/12/07 01:38:39;;;;;;;45.58;17.02;;;;;;;-0.49;93.30;100099.66;5076066;28;20023;-89
2020/12/07 01:41:05;;;;;;;39.65;15.80;;;;;;;-0.50;93.31;100095.44;5076617;28;20368;-89
2020/12/07 01:43:30;;;;;;;40.03;16.00;;;;;;;-0.51;93.39;100096.34;5076401;28;20020;-90
2020/12/07 01:45:57;;;;;;;39.35;15.73;;;;;;;-0.54;93.65;100099.94;5076190;28;20028;-90
2020/12/07 01:48:25;;;;;;;40.92;16.05;;;;;;;-0.55;93.35;100105.19;5076229;28;20038;-90
2020/12/07 01:50:54;;;;;;;37.85;14.85;;;;;;;-0.56;93.26;100104.34;5075952;28;20031;-90
2020/12/07 01:53:21;;;;;;;36.30;14.85;;;;;;;-0.57;93.51;100097.53;5076482;28;20100;-89
2020/12/07 01:55:48;;;;;;;43.42;16.20;;;;;;;-0.57;93.43;100094.97;5075982;28;20031;-90
2020/12/07 01:58:13;;;;;;;37.78;15.40;;;;;;;-0.58;93.25;100095.03;5075881;28;20118;-91
2020/12/07 02:00:39;;;;;;;42.33;17.00;;;;;;;-0.59;93.31;100086.50;5075737;28;20028;-90
2020/12/07 02:03:05;;;;;;;39.55;16.45;;;;;;;-0.59;93.60;100093.38;5075834;28;20534;-90
2020/12/07 02:05:31;;;;;;;41.92;16.00;;;;;;;-0.61;93.49;100091.72;5075894;28;20039;-89
2020/12/07 02:08:19;;;;;;;37.17;15.18;;;;;;;-0.66;93.58;100091.13;5075842;28;20039;-90
2020/12/07 02:10:45;;;;;;;37.58;15.25;;;;;;;-0.67;93.35;100091.22;5075612;28;20032;-90
2020/12/07 02:13:12;;;;;;;40.00;15.63;;;;;;;-0.68;93.39;100085.25;5075808;28;20558;-90
2020/12/07 02:15:38;;;;;;;36.83;15.15;;;;;;;-0.71;93.62;100085.41;5075155;28;20092;-90
2020/12/07 02:18:05;;;;;;;35.13;14.73;;;;;;;-0.71;93.77;100089.72;5075611;28;20034;-90
2020/12/07 02:20:31;;;;;;;38.47;15.10;;;;;;;-0.70;93.49;100086.25;5075604;28;20113;-89
2020/12/07 02:22:57;;;;;;;38.17;15.77;;;;;;;-0.69;93.31;100086.16;5075608;28;20038;-90
2020/12/07 02:25:22;;;;;;;41.92;15.38;;;;;;;-0.67;93.38;100080.91;5075440;28;20028;-90
2020/12/07 02:27:50;;;;;;;39.92;15.45;;;;;;;-0.66;93.45;100085.97;5075308;28;20035;-90
2020/12/07 02:30:23;;;;;;;36.83;15.25;;;;;;;-0.63;93.45;100082.44;5075335;28;20479;-90
2020/12/07 02:32:50;;;;;;;39.97;15.20;;;;;;;-0.61;93.36;100081.44;5075652;28;20115;-90
2020/12/07 02:35:16;;;;;;;35.92;14.85;;;;;;;-0.57;93.50;100083.81;5075134;28;20054;-89
2020/12/07 02:37:43;;;;;;;36.28;14.55;;;;;;;-0.55;93.32;100090.53;5075165;28;20024;-90
2020/12/07 02:40:10;;;;;;;33.60;14.43;;;;;;;-0.53;93.31;100085.31;5075052;28;20107;-90
2020/12/07 02:42:37;;;;;;;32.60;13.30;;;;;;;-0.53;93.40;100085.31;5075211;28;20028;-90
2020/12/07 02:45:08;;;;;;;32.35;13.32;;;;;;;-0.52;93.48;100074.09;5075041;28;20024;-90
2020/12/07 02:47:33;;;;;;;29.92;12.98;;;;;;;-0.51;93.28;100075.75;5075159;28;20032;-90
2020/12/07 02:49:59;;;;;;;32.28;13.32;;;;;;;-0.50;93.66;100065.34;5073553;28;20069;-90
2020/12/07 02:52:26;;;;;;;26.67;12.73;;;;;;;-0.44;93.44;100071.94;5074925;28;20026;-91
2020/12/07 02:54:56;;;;;;;27.63;12.32;;;;;;;-0.40;93.42;100069.09;5075039;28;20043;-90
2020/12/07 02:57:22;;;;;;;26.88;12.65;;;;;;;-0.37;93.43;100071.47;5074778;28;20024;-90
2020/12/07 02:59:48;;;;;;;23.42;11.60;;;;;;;-0.35;93.63;100076.53;5074860;28;20023;-90
2020/12/07 03:02:14;;;;;;;26.88;12.10;;;;;;;-0.36;93.65;100064.59;5074768;28;20028;-91
2020/12/07 03:04:40;;;;;;;23.15;11.80;;;;;;;-0.36;93.64;100060.25;5074719;28;20024;-91
2020/12/07 03:07:06;;;;;;;24.10;11.25;;;;;;;-0.34;93.37;100066.16;5075032;28;20040;-91
2020/12/07 03:09:31;;;;;;;27.00;12.13;;;;;;;-0.37;93.54;100057.78;5074811;28;20032;-90
2020/12/07 03:11:57;;;;;;;22.48;11.25;;;;;;;-0.36;93.73;100064.59;5074948;28;20471;-89
2020/12/07 03:14:23;;;;;;;24.65;11.43;;;;;;;-0.39;93.49;100060.44;5074809;28;20040;-89
2020/12/07 03:16:48;;;;;;;24.95;10.98;;;;;;;-0.48;93.51;100049.81;5074632;28;20039;-90
2020/12/07 03:19:14;;;;;;;25.75;11.55;;;;;;;-0.48;93.35;100057.53;5074978;28;20208;-90
2020/12/07 03:21:39;;;;;;;25.30;11.95;;;;;;;-0.47;93.38;100059.22;5074882;28;20025;-89
2020/12/07 03:24:05;;;;;;;20.73;11.02;;;;;;;-0.43;93.46;100058.13;5074770;28;20031;-90
2020/12/07 03:26:35;;;;;;;23.05;11.23;;;;;;;-0.38;93.44;100053.53;5074382;28;20424;-90
2020/12/07 03:29:04;;;;;;;24.90;10.95;;;;;;;-0.32;93.61;100048.03;5074897;28;20035;-91
2020/12/07 03:31:34;;;;;;;24.95;11.50;;;;;;;-0.26;93.37;100047.69;5074659;28;20028;-89
2020/12/07 03:34:01;;;;;;;24.48;11.27;;;;;;;-0.21;93.47;100048.25;5074948;28;20093;-90
2020/12/07 03:36:26;;;;;;;24.05;11.88;;;;;;;-0.15;93.46;100045.34;5077489;28;20036;-90
2020/12/07 03:38:52;;;;;;;24.17;11.13;;;;;;;-0.11;93.70;100048.56;5074466;28;20445;-90
2020/12/07 03:41:18;;;;;;;25.30;12.40;;;;;;;-0.07;93.46;100043.13;5074459;28;20052;-90
2020/12/07 03:43:44;;;;;;;25.08;11.93;;;;;;;-0.02;93.46;100043.69;5074617;28;20032;-91
2020/12/07 03:46:10;;;;;;;27.77;11.43;;;;;;;0.04;93.53;100042.50;5074406;28;20036;-90
2020/12/07 03:48:35;;;;;;;22.25;10.95;;;;;;;0.06;93.36;100042.41;5074680;28;20082;-90
2020/12/07 03:51:01;;;;;;;22.95;10.23;;;;;;;0.09;93.56;100048.22;5074728;28;20031;-89
2020/12/07 03:53:31;;;;;;;21.77;10.52;;;;;;;0.13;93.45;100038.56;5084647;28;20041;-90
2020/12/07 03:55:57;;;;;;;22.20;11.25;;;;;;;0.16;93.21;100035.78;5084894;28;20510;-89
2020/12/07 03:58:22;;;;;;;22.40;10.82;;;;;;;0.18;93.68;100039.13;5084282;28;20105;-90
2020/12/07 04:00:47;;;;;;;24.33;11.32;;;;;;;0.22;93.46;100030.28;5087502;28;20028;-90
2020/12/07 04:03:14;;;;;;;24.55;11.27;;;;;;;0.21;93.44;100032.03;5088593;28;20084;-90
2020/12/07 04:05:41;;;;;;;23.65;11.18;;;;;;;0.26;93.68;100040.31;5084647;28;20024;-90
2020/12/07 04:08:07;;;;;;;24.95;11.00;;;;;;;0.29;93.52;100050.44;5079476;28;20042;-89
2020/12/07 04:10:36;;;;;;;24.70;11.48;;;;;;;0.34;93.52;100041.63;5083392;28;20032;-90
2020/12/07 04:13:01;;;;;;;24.92;11.38;;;;;;;0.38;93.26;100035.34;5090531;28;20024;-90
2020/12/07 04:15:27;;;;;;;24.60;12.18;;;;;;;0.41;93.38;100033.41;5079007;28;20036;-91
2020/12/07 04:17:52;;;;;;;21.00;10.52;;;;;;;0.46;93.46;100027.97;5078254;28;20088;-89
2020/12/07 04:20:18;;;;;;;21.88;11.20;;;;;;;0.47;93.41;100025.28;5078399;28;20032;-90
2020/12/07 04:22:43;;;;;;;24.77;11.65;;;;;;;0.47;93.61;100020.13;5077869;28;20070;-91
2020/12/07 04:25:08;;;;;;;24.60;11.55;;;;;;;0.39;94.15;100024.94;5078131;28;20020;-91
2020/12/07 04:27:34;;;;;;;29.30;12.13;;;;;;;0.30;94.29;100016.00;5077847;28;20020;-89
2020/12/07 04:29:59;;;;;;;25.90;11.25;;;;;;;0.27;94.51;100010.19;5078111;28;20032;-90
2020/12/07 04:32:25;;;;;;;23.83;11.45;;;;;;;0.27;94.47;100007.63;5077587;28;20036;-90
2020/12/07 04:34:50;;;;;;;24.55;11.05;;;;;;;0.26;94.29;100011.13;5077658;28;20016;-89
2020/12/07 04:37:16;;;;;;;24.85;12.15;;;;;;;0.29;94.38;100009.19;5077783;28;20028;-89
2020/12/07 04:39:41;;;;;;;25.35;11.93;;;;;;;0.34;94.29;100016.66;5077511;28;20083;-90
2020/12/07 04:42:07;;;;;;;25.92;12.23;;;;;;;0.38;94.30;100012.97;5077883;28;20024;-90
2020/12/07 04:44:33;;;;;;;29.45;12.80;;;;;;;0.43;94.18;100010.09;5077526;28;20024;-91
2020/12/07 04:46:59;;;;;;;25.98;11.98;;;;;;;0.44;94.46;100002.25;5077444;28;20034;-90
2020/12/07 04:49:28;;;;;;;27.35;12.68;;;;;;;0.45;94.46;100014.25;5077468;28;20024;-91
2020/12/07 04:51:54;;;;;;;23.23;11.85;;;;;;;0.46;94.23;100017.66;5077033;28;20521;-89
2020/12/07 04:54:21;;;;;;;24.95;12.07;;;;;;;0.47;94.43;100022.72;5077572;28;20028;-90
2020/12/07 04:56:47;;;;;;;22.77;11.43;;;;;;;0.50;94.47;100025.13;5077201;28;20070;-90
2020/12/07 04:59:14;;;;;;;26.52;12.00;;;;;;;0.53;94.41;100027.53;5077208;28;20040;-90
2020/12/07 05:01:40;;;;;;;24.50;11.75;;;;;;;0.56;94.46;100029.06;5077127;28;20094;-90
2020/12/07 05:04:06;;;;;;;26.08;12.18;;;;;;;0.56;94.48;100029.06;5077191;28;20437;-89
2020/12/07 05:06:31;;;;;;;24.58;11.73;;;;;;;0.57;94.64;100020.41;5076975;28;20031;-89
2020/12/07 05:08:58;;;;;;;26.77;12.27;;;;;;;0.56;94.68;100026.50;5077143;28;20073;-90
2020/12/07 05:11:26;;;;;;;24.55;12.10;;;;;;;0.55;94.56;100020.50;5077060;28;20032;-89
2020/12/07 05:14:07;;;;;;;26.27;12.73;;;;;;;0.53;94.48;100014.63;5075748;28;20093;-89
2020/12/07 05:16:32;;;;;;;23.90;11.00;;;;;;;0.54;94.67;100030.94;5076721;28;20024;-90
2020/12/07 05:19:00;;;;;;;22.30;11.50;;;;;;;0.54;94.57;100029.19;5076668;28;20028;-90
2020/12/07 05:21:26;;;;;;;23.30;11.88;;;;;;;0.56;94.34;100026.50;5076608;28;20216;-90
2020/12/07 05:23:52;;;;;;;29.92;11.82;;;;;;;0.59;94.63;100019.38;5076657;28;20057;-91
2020/12/07 05:26:19;;;;;;;25.73;12.20;;;;;;;0.62;94.73;100027.88;5077469;28;20020;-89
2020/12/07 05:28:49;;;;;;;24.63;11.98;;;;;;;0.64;94.38;100029.47;5077104;28;20039;-90
2020/12/07 05:31:22;;;;;;;27.67;12.55;;;;;;;0.64;94.59;100028.63;5076664;28;20540;-89
2020/12/07 05:33:49;;;;;;;24.38;12.75;;;;;;;0.64;94.55;100026.88;5076604;28;20034;-90
2020/12/07 05:36:16;;;;;;;24.50;12.25;;;;;;;0.64;94.35;100028.63;5076744;28;20031;-90
2020/12/07 05:38:45;;;;;;;26.85;12.98;;;;;;;0.66;94.56;100024.19;5076429;28;20032;-89
2020/12/07 05:41:15;;;;;;;25.58;12.85;;;;;;;0.65;94.44;100025.94;5071952;28;20032;-90
2020/12/07 05:43:41;;;;;;;25.35;12.43;;;;;;;0.67;94.59;100025.84;5076517;28;20032;-89
2020/12/07 05:46:06;;;;;;;25.13;12.15;;;;;;;0.68;94.64;100032.66;5076290;28;20036;-89
2020/12/07 05:48:34;;;;;;;28.52;11.30;;;;;;;0.70;94.83;100023.06;5076098;28;20521;-90
2020/12/07 05:51:02;;;;;;;25.35;11.85;;;;;;;0.70;94.64;100023.06;5076164;28;20430;-90
2020/12/07 05:53:29;;;;;;;24.95;12.38;;;;;;;0.72;94.60;100021.22;5076046;28;20024;-88
2020/12/07 05:55:55;;;;;;;23.52;11.43;;;;;;;0.74;94.72;100029.69;5076672;28;20031;-89
2020/12/07 05:58:22;;;;;;;21.17;11.48;;;;;;;0.76;94.72;100027.84;5076037;28;20024;-89
2020/12/07 06:00:54;;;;;;;25.10;12.00;;;;;;;0.76;94.54;100026.09;5076019;28;20107;-90
2020/12/07 06:03:20;;;;;;;26.10;12.05;;;;;;;0.77;94.59;100025.16;5076717;28;20458;-89
2020/12/07 06:05:46;;;;;;;26.20;12.00;;;;;;;0.77;94.44;100024.34;5075826;28;20020;-90
2020/12/07 06:08:26;;;;;;;21.33;11.05;;;;;;;0.78;94.65;100026.81;5075794;28;20519;-90
2020/12/07 06:10:56;;;;;;;21.88;11.15;;;;;;;0.80;94.45;100021.59;5075966;28;20346;-90
2020/12/07 06:13:24;;;;;;;23.38;10.80;;;;;;;0.80;94.57;100026.75;5075524;28;20084;-90
2020/12/07 06:15:52;;;;;;;21.80;11.80;;;;;;;0.79;94.66;100022.50;5075398;28;20109;-90
2020/12/07 06:18:42;;;;;;;24.88;10.80;;;;;;;0.77;94.53;100022.59;5076512;28;20067;-89
2020/12/07 06:21:17;;;;;;;21.25;10.95;;;;;;;0.74;94.79;100016.78;5080790;28;20028;-89
2020/12/07 06:23:46;;;;;;;22.23;10.57;;;;;;;0.70;94.53;100015.34;5078327;28;20052;-91
2020/12/07 06:26:13;;;;;;;21.17;10.48;;;;;;;0.70;94.86;100020.50;5074979;28;20091;-90
2020/12/07 06:28:42;;;;;;;19.83;10.80;;;;;;;0.68;94.69;100017.19;5075407;28;20032;-91
2020/12/07 06:31:16;;;;;;;19.63;10.30;;;;;;;0.65;94.63;100019.97;5075672;28;20118;-90
2020/12/07 06:33:46;;;;;;;21.20;10.85;;;;;;;0.63;94.56;100019.19;5075233;28;20032;-91
2020/12/07 06:36:34;;;;;;;19.77;10.75;;;;;;;0.62;95.18;100009.81;5075304;28;20475;-89
2020/12/07 06:39:02;;;;;;;21.02;10.60;;;;;;;0.61;95.36;100006.38;5075505;28;20043;-89
2020/12/07 06:41:45;;;;;;;21.38;11.18;;;;;;;0.61;94.72;100006.38;5076539;28;20028;-89
2020/12/07 06:44:16;;;;;;;22.77;11.77;;;;;;;0.60;94.83;100005.56;5075263;28;20028;-91
2020/12/07 06:46:46;;;;;;;21.48;10.80;;;;;;;0.59;94.79;100003.91;5075418;28;20024;-91
2020/12/07 06:49:12;;;;;;;23.13;11.02;;;;;;;0.57;94.88;100008.34;5075315;28;20023;-91
2020/12/07 06:51:39;;;;;;;22.67;11.32;;;;;;;0.56;94.90;99998.13;5075433;28;20554;-91
2020/12/07 06:55:01;;;;;;;20.95;11.68;;;;;;;0.57;94.83;100010.09;5082265;28;20020;-89
2020/12/07 06:56:52;;;;;;;25.02;11.85;;;;;;;0.56;94.88;100009.25;5099987;28;20054;-91
2020/12/07 06:59:17;;;;;;;21.77;11.40;;;;;;;0.56;94.96;100009.25;5075843;28;20491;-90
2020/12/07 07:01:52;;;;;;;23.00;11.05;;;;;;;0.57;94.95;100012.66;5076307;28;20497;-89
2020/12/07 07:04:22;;;;;;;21.88;11.50;;;;;;;0.58;95.07;100009.16;5074945;28;20028;-89
2020/12/07 07:06:47;;;;;;;26.10;11.80;;;;;;;0.58;95.15;100012.56;5059983;28;20039;-89
2020/12/07 07:09:12;;;;;;;22.92;11.15;;;;;;;0.57;95.17;100010.91;5074737;28;20016;-89
2020/12/07 07:11:38;;;;;;;22.73;11.18;;;;;;;0.61;95.17;100021.88;5075607;28;20020;-89
2020/12/07 07:14:05;;;;;;;24.63;12.50;;;;;;;0.64;95.30;100015.72;5074746;28;20044;-89
2020/12/07 07:16:34;;;;;;;24.35;12.00;;;;;;;0.67;95.19;100020.69;5075637;28;20040;-90
2020/12/07 07:18:59;;;;;;;21.52;12.13;;;;;;;0.71;95.00;100030.72;5075013;28;20101;-90
2020/12/07 07:21:25;;;;;;;25.83;11.85;;;;;;;0.73;95.11;100025.47;5074926;28;20032;-89
2020/12/07 07:23:52;;;;;;;26.25;12.82;;;;;;;0.77;95.18;100032.91;5074195;28;20447;-90
2020/12/07 07:26:24;;;;;;;23.60;11.45;;;;;;;0.80;95.18;100031.94;5075094;28;20058;-90
2020/12/07 07:28:51;;;;;;;19.48;11.60;;;;;;;0.83;95.32;100037.72;5077915;28;20434;-90
2020/12/07 07:31:18;;;;;;;24.65;12.20;;;;;;;0.86;94.99;100039.28;5075010;28;20036;-90
2020/12/07 07:33:44;;;;;;;22.63;12.02;;;;;;;0.89;95.25;100039.09;5074548;28;20635;-89
2020/12/07 07:36:24;;;;;;;21.02;11.68;;;;;;;0.91;95.27;100044.97;5075408;28;20414;-90
2020/12/07 07:38:54;;;;;;;23.23;11.95;;;;;;;0.93;95.18;100045.72;5079908;28;20087;-90
2020/12/07 07:41:32;;;;;;;24.10;11.98;;;;;;;0.97;95.18;100038.63;5080663;28;20036;-89
2020/12/07 07:43:58;;;;;;;29.05;12.27;;;;;;;1.01;94.97;100040.91;5078829;28;20032;-89
2020/12/07 07:46:24;;;;;;;22.98;12.07;;;;;;;1.06;94.91;100043.19;5079249;28;20437;-90
2020/12/07 08:03:32;;;;;;;21.33;11.73;;;;;;;1.33;95.09;100056.13;5051262;28;20040;-90
2020/12/07 08:16:17;;;;;;;23.95;12.27;;;;;;;1.65;94.66;100054.91;5056387;28;20511;-88
2020/12/07 08:18:44;;;;;;;25.48;12.10;;;;;;;1.71;94.45;100048.50;5038524;28;20123;-88
2020/12/07 08:21:10;;;;;;;24.63;12.68;;;;;;;1.76;94.52;100057.63;5038758;28;20057;-88
2020/12/07 08:23:36;;;;;;;25.13;13.30;;;;;;;1.81;94.48;100054.72;5038127;28;20024;-87
2020/12/07 08:26:03;;;;;;;29.73;14.75;;;;;;;1.85;94.37;100063.09;5037532;28;20029;-87
2020/12/07 08:28:41;;;;;;;26.92;13.40;;;;;;;1.87;94.48;100062.06;5038308;28;20032;-88
2020/12/07 08:31:15;;;;;;;25.15;12.57;;;;;;;1.89;94.34;100062.78;5037765;28;20067;-88
2020/12/07 08:33:55;;;;;;;23.05;12.38;;;;;;;1.91;94.71;100060.13;5038614;28;20070;-87
2020/12/07 08:36:20;;;;;;;23.17;12.93;;;;;;;1.90;94.76;100056.72;5037896;28;20495;-88
2020/12/07 08:38:50;;;;;;;26.58;14.98;;;;;;;1.92;94.73;100067.78;5038422;28;20035;-89
2020/12/07 08:41:21;;;;;;;29.48;14.60;;;;;;;1.92;94.82;100061.78;5038510;28;20025;-89
2020/12/07 08:43:49;;;;;;;27.55;13.10;;;;;;;1.93;94.73;100059.09;5038864;28;20065;-88
2020/12/07 08:46:18;;;;;;;27.40;14.25;;;;;;;1.94;94.84;100059.94;5037653;28;20114;-88
2020/12/07 08:48:44;;;;;;;24.98;13.77;;;;;;;1.94;95.08;100057.34;5037402;28;20401;-87
2020/12/07 08:51:09;;;;;;;25.95;13.23;;;;;;;1.95;94.83;100059.00;5038872;28;20075;-87
2020/12/07 08:53:36;;;;;;;26.67;12.95;;;;;;;1.97;94.71;100060.53;5037411;28;20100;-87
2020/12/07 08:56:07;;;;;;;24.25;13.73;;;;;;;2.01;94.90;100068.91;5039308;28;20021;-87
2020/12/07 08:58:33;;;;;;;28.67;13.20;;;;;;;2.04;94.96;100069.53;5037425;28;20043;-88
2020/12/07 09:01:00;;;;;;;25.13;12.57;;;;;;;2.06;94.92;100062.53;5039226;28;20036;-87
2020/12/07 09:03:25;;;;;;;26.42;12.95;;;;;;;2.10;95.01;100063.97;5036911;28;20028;-88
2020/12/07 09:05:51;;;;;;;28.30;12.90;;;;;;;2.14;94.91;100064.59;5038864;28;20025;-88
2020/12/07 09:08:16;;;;;;;26.15;13.30;;;;;;;2.19;95.08;100067.69;5038715;28;20056;-88
2020/12/07 09:10:41;;;;;;;28.27;13.18;;;;;;;2.24;95.26;100068.25;5036784;28;20503;-87
2020/12/07 09:13:07;;;;;;;27.98;13.32;;;;;;;2.28;95.19;100079.19;5037677;28;20421;-88
2020/12/07 09:15:32;;;;;;;23.67;12.10;;;;;;;2.34;95.15;100068.44;5054667;28;20083;-88
2020/12/07 09:17:58;;;;;;;29.15;12.85;;;;;;;2.38;95.09;100070.72;5057638;28;20063;-89
2020/12/07 09:20:24;;;;;;;22.33;12.32;;;;;;;2.42;95.05;100076.53;5057769;28;20028;-89
2020/12/07 09:22:50;;;;;;;32.22;14.73;;;;;;;2.47;95.36;100073.59;5058582;28;20021;-88
2020/12/07 09:25:16;;;;;;;23.15;12.70;;;;;;;2.49;95.26;100072.56;5056379;28;20028;-89
2020/12/07 09:27:41;;;;;;;24.50;13.00;;;;;;;2.52;95.29;100077.53;5057140;28;20032;-89
2020/12/07 09:30:07;;;;;;;27.60;13.90;;;;;;;2.55;95.33;100082.53;5057801;28;20044;-89
2020/12/07 09:32:32;;;;;;;23.88;12.48;;;;;;;2.55;95.26;100084.28;5057660;28;20074;-88
2020/12/07 09:34:58;;;;;;;25.15;13.13;;;;;;;2.56;95.30;100086.78;5058946;28;20437;-88
2020/12/07 09:37:24;;;;;;;20.00;11.27;;;;;;;2.59;95.43;100080.56;5060153;28;20038;-88
2020/12/07 09:39:49;;;;;;;24.83;11.45;;;;;;;2.60;95.53;100088.22;5058702;28;20036;-88
2020/12/07 09:42:15;;;;;;;26.15;13.55;;;;;;;2.64;95.46;100086.22;5058652;28;20522;-88
2020/12/07 09:44:40;;;;;;;20.20;11.50;;;;;;;2.65;95.43;100082.72;5058345;28;20027;-90
2020/12/07 09:47:06;;;;;;;19.85;11.38;;;;;;;2.68;95.50;100088.53;5059495;28;20585;-89
2020/12/07 09:49:32;;;;;;;20.50;11.27;;;;;;;2.73;95.51;100097.72;5061238;28;20036;-88
2020/12/07 09:51:58;;;;;;;20.42;10.55;;;;;;;2.73;95.53;100095.16;5058571;28;20039;-88
2020/12/07 09:54:23;;;;;;;21.13;11.15;;;;;;;2.75;95.37;100098.44;5059728;28;20029;-89
2020/12/07 09:56:49;;;;;;;25.38;11.43;;;;;;;2.75;95.84;100101.88;5058736;28;20050;-87
2020/12/07 09:59:15;;;;;;;32.00;12.13;;;;;;;2.77;95.55;100094.81;5057148;28;20033;-89
2020/12/07 10:01:40;;;;;;;23.88;10.35;;;;;;;2.78;95.59;100104.25;5057375;28;20081;-88
2020/12/07 10:04:06;;;;;;;22.38;11.00;;;;;;;2.80;95.69;100104.13;5059797;28;20024;-90
2020/12/07 10:06:31;;;;;;;22.80;11.60;;;;;;;2.83;95.37;100101.31;5062582;28;20021;-89
2020/12/07 10:08:57;;;;;;;19.88;11.48;;;;;;;2.85;95.60;100115.84;5066282;28;20028;-88
2020/12/07 10:11:22;;;;;;;20.85;11.50;;;;;;;2.84;95.46;100111.63;5069556;28;20055;-89
2020/12/07 10:13:48;;;;;;;21.92;11.50;;;;;;;2.86;95.72;100119.28;5068685;28;20059;-90
2020/12/07 10:16:14;;;;;;;20.27;11.35;;;;;;;2.78;95.40;100112.00;5061893;28;20085;-90
2020/12/07 10:18:40;;;;;;;20.77;11.02;;;;;;;2.73;96.09;100110.69;5056483;28;20028;-88
2020/12/07 10:21:06;;;;;;;23.55;11.70;;;;;;;2.66;96.34;100107.66;5056418;28;20028;-90
2020/12/07 10:23:32;;;;;;;29.05;12.70;;;;;;;2.67;96.80;100099.78;5059294;28;20029;-90
2020/12/07 10:25:57;;;;;;;26.80;13.48;;;;;;;2.70;96.48;100101.38;5060091;28;20391;-91
2020/12/07 10:28:23;;;;;;;28.50;13.65;;;;;;;2.73;96.84;100093.38;5057420;28;20329;-88
2020/12/07 10:30:48;;;;;;;30.92;14.25;;;;;;;2.76;96.85;100098.34;5057491;28;20371;-90
2020/12/07 10:33:14;;;;;;;22.52;12.27;;;;;;;2.73;96.96;100090.78;5056900;28;20036;-89
2020/12/07 10:35:40;;;;;;;26.95;13.38;;;;;;;2.74;97.06;100099.38;5057414;28;20020;-88
2020/12/07 10:38:05;;;;;;;31.27;15.07;;;;;;;2.78;97.18;100098.22;5057783;28;20040;-90
2020/12/07 10:40:31;;;;;;;32.45;15.80;;;;;;;2.80;97.26;100099.78;5057465;28;20059;-91
2020/12/07 10:42:57;;;;;;;35.67;15.63;;;;;;;2.86;97.62;100090.78;5056935;28;20038;-91
2020/12/07 10:45:23;;;;;;;35.40;16.63;;;;;;;2.90;97.73;100095.63;5075320;28;20028;-91
2020/12/07 10:47:51;;;;;;;44.78;16.67;;;;;;;2.92;97.73;100091.16;5057262;28;20479;-92
2020/12/07 10:50:17;;;;;;;41.13;15.65;;;;;;;2.96;98.06;100090.00;5057848;28;20025;-91
2020/12/07 10:52:43;;;;;;;40.47;17.35;;;;;;;2.98;98.06;100095.91;5057234;28;20111;-91
2020/12/07 10:55:08;;;;;;;46.65;17.10;;;;;;;2.97;98.06;100102.03;5056233;28;20115;-90
2020/12/07 10:57:34;;;;;;;40.92;16.52;;;;;;;2.98;98.08;100090.72;5057714;28;20032;-88
2020/12/07 10:59:59;;;;;;;37.10;15.45;;;;;;;3.02;98.24;100087.94;5058277;28;20043;-89
2020/12/07 11:02:27;;;;;;;45.30;17.45;;;;;;;3.06;98.23;100099.75;5058234;28;20494;-89
2020/12/07 11:04:52;;;;;;;36.45;16.52;;;;;;;3.12;98.18;100094.94;5056831;28;20032;-88
2020/12/07 11:07:19;;;;;;;44.58;18.60;;;;;;;3.21;98.35;100098.69;5057508;28;20025;-87
2020/12/07 11:09:44;;;;;;;36.55;17.40;;;;;;;3.26;98.33;100099.16;5057210;28;20131;-89
2020/12/07 11:12:14;;;;;;;42.88;18.58;;;;;;;3.29;98.45;100102.38;5054736;28;20115;-88
2020/12/07 11:14:39;;;;;;;48.78;19.48;;;;;;;3.32;98.56;100100.53;5055183;28;20510;-87
2020/12/07 11:17:05;;;;;;;53.35;19.88;;;;;;;3.32;98.66;100097.94;5055948;28;20033;-88
2020/12/07 11:19:31;;;;;;;43.80;20.20;;;;;;;3.32;98.76;100101.34;5056151;28;20032;-88
2020/12/07 11:21:57;;;;;;;51.92;20.67;;;;;;;3.34;98.51;100099.47;5055512;28;20116;-89
2020/12/07 11:24:22;;;;;;;46.45;19.50;;;;;;;3.37;98.66;100099.25;5056365;28;20028;-91
2020/12/07 11:26:48;;;;;;;43.65;19.00;;;;;;;3.41;98.63;100092.91;5056260;28;20025;-90
2020/12/07 11:29:13;;;;;;;41.30;19.35;;;;;;;3.46;98.75;100095.16;5056540;28;20055;-88
2020/12/07 11:31:39;;;;;;;45.42;19.33;;;;;;;3.52;98.97;100089.53;5057605;28;20032;-89
2020/12/07 11:34:04;;;;;;;50.72;19.52;;;;;;;3.57;98.92;100085.66;5056766;28;20059;-89
2020/12/07 11:36:30;;;;;;;46.22;19.55;;;;;;;3.61;98.97;100087.09;5056151;28;20361;-90
2020/12/07 11:44:13;;;;;;;46.50;20.90;;;;;;;3.72;99.07;100082.91;5043921;28;20372;-89